createdAt,value
2022-12-12T00:01:36.444Z,100763.81
2022-12-12T00:04:03.957Z,100893.06
2022-12-12T00:06:30.900Z,100882.34
2022-12-12T00:08:57.456Z,100855.25
2022-12-12T00:11:24.881Z,100907.75
2022-12-12T00:13:52.927Z,100883.50
2022-12-12T00:16:19.615Z,100869.28
2022-12-12T00:18:46.324Z,100872.88
2022-12-12T00:21:23.544Z,100887.09
2022-12-12T00:23:50.505Z,100809.69
2022-12-12T00:26:26.230Z,100906.38
2022-12-12T00:28:53.272Z,100875.19
2022-12-12T00:31:21.162Z,100859.91
2022-12-12T00:33:49.930Z,100901.88
2022-12-12T00:36:18.322Z,100881.22
2022-12-12T00:38:45.097Z,100775.06
2022-12-12T00:41:12.142Z,100763.97
2022-12-12T00:43:38.741Z,100846.25
2022-12-12T00:46:05.803Z,100873.63
2022-12-12T00:48:32.722Z,100818.47
2022-12-12T00:51:09.567Z,100870.44
2022-12-12T00:53:38.513Z,100881.03
2022-12-12T00:56:05.821Z,100823.72
2022-12-12T00:58:32.881Z,100914.88
2022-12-12T01:01:06.404Z,100888.72
2022-12-12T01:03:34.871Z,100873.88
2022-12-12T01:06:01.838Z,100890.78
2022-12-12T01:08:29.148Z,100806.31
2022-12-12T01:10:56.561Z,100689.31
2022-12-12T01:13:23.626Z,100830.72
2022-12-12T01:15:50.191Z,100858.25
2022-12-12T01:18:17.635Z,100896.22
2022-12-12T01:20:44.477Z,100818.97
2022-12-12T01:23:11.719Z,100879.25
2022-12-12T01:25:38.482Z,100900.50
2022-12-12T01:28:05.081Z,100827.56
2022-12-12T01:30:32.392Z,100893.03
2022-12-12T01:32:58.845Z,100839.97
2022-12-12T01:35:26.911Z,100897.97
2022-12-12T01:37:54.212Z,100908.13
2022-12-12T01:40:29.298Z,100917.53
2022-12-12T01:42:56.505Z,100809.84
2022-12-12T01:46:00.245Z,100946.56
2022-12-12T01:48:31.729Z,100851.94
2022-12-12T01:51:02.193Z,100956.38
2022-12-12T01:53:31.442Z,100919.78
2022-12-12T01:55:59.668Z,100821.25
2022-12-12T01:58:27.131Z,100917.84
2022-12-12T02:00:53.660Z,100910.34
2022-12-12T02:03:20.263Z,100924.25
2022-12-12T02:05:51.849Z,100900.16
2022-12-12T02:08:21.076Z,100925.69
2022-12-12T02:10:48.731Z,100919.78
2022-12-12T02:13:18.942Z,100924.09
2022-12-12T02:15:58.869Z,100952.41
2022-12-12T02:18:44.731Z,100824.50
2022-12-12T02:21:21.363Z,100948.41
2022-12-12T02:24:25.608Z,100957.50
2022-12-12T02:27:11.299Z,100959.94
2022-12-12T02:29:40.727Z,100969.34
2022-12-12T02:32:18.173Z,100967.25
2022-12-12T02:34:55.443Z,100968.53
2022-12-12T02:37:31.099Z,100910.88
2022-12-12T02:40:13.949Z,100967.44
2022-12-12T02:42:40.360Z,100964.94
2022-12-12T02:45:42.774Z,100965.63
2022-12-12T02:48:22.389Z,100935.50
2022-12-12T02:50:51.970Z,100926.28
2022-12-12T02:53:23.645Z,100778.59
2022-12-12T02:56:00.880Z,100928.09
2022-12-12T02:58:27.518Z,100951.41
2022-12-12T03:01:13.154Z,100854.91
2022-12-12T03:04:14.164Z,100947.06
2022-12-12T03:07:18.664Z,100865.31
2022-12-12T03:10:05.398Z,100942.38
2022-12-12T03:13:08.638Z,100966.19
2022-12-12T03:15:52.690Z,100966.28
2022-12-12T03:18:33.477Z,100858.75
2022-12-12T03:21:03.537Z,100968.34
2022-12-12T03:23:40.173Z,100855.31
2022-12-12T03:26:17.037Z,100938.19
2022-12-12T03:28:58.305Z,100951.41
2022-12-12T03:31:28.599Z,100969.09
2022-12-12T03:34:01.006Z,100954.38
2022-12-12T03:36:37.577Z,100838.84
2022-12-12T03:39:09.307Z,100947.53
2022-12-12T03:41:41.613Z,100920.94
2022-12-12T03:44:38.169Z,100952.94
2022-12-12T03:47:13.295Z,100959.94
2022-12-12T03:50:00.049Z,100980.47
2022-12-12T03:52:39.738Z,100981.16
2022-12-12T03:55:14.838Z,100989.53
2022-12-12T03:57:51.899Z,100916.41
2022-12-12T04:00:18.908Z,100937.94
2022-12-12T04:02:53.672Z,100856.94
2022-12-12T04:06:01.609Z,100984.13
2022-12-12T04:08:28.781Z,100987.78
2022-12-12T04:11:20.619Z,100869.69
2022-12-12T04:14:03.863Z,100876.56
2022-12-12T04:16:32.290Z,100978.44
2022-12-12T04:19:07.004Z,100854.66
2022-12-12T04:22:05.400Z,100945.91
2022-12-12T04:24:42.418Z,100981.16
2022-12-12T04:27:30.627Z,100987.16
2022-12-12T04:30:08.731Z,100957.88
2022-12-12T04:32:44.850Z,100946.13
2022-12-12T04:35:17.632Z,100968.00
2022-12-12T04:37:51.877Z,100963.50
2022-12-12T04:40:40.904Z,100993.50
2022-12-12T04:43:16.298Z,100945.94
2022-12-12T04:45:51.417Z,100873.88
2022-12-12T04:48:22.301Z,101003.00
2022-12-12T04:50:52.690Z,100894.84
2022-12-12T04:53:29.482Z,100952.44
2022-12-12T04:55:57.401Z,100862.38
2022-12-12T04:58:24.826Z,100835.34
2022-12-12T05:01:08.538Z,100981.59
2022-12-12T05:03:53.312Z,100932.72
2022-12-12T05:06:24.301Z,100975.66
2022-12-12T05:08:54.400Z,100978.25
2022-12-12T05:11:22.291Z,100978.44
2022-12-12T05:13:49.760Z,100896.41
2022-12-12T05:16:28.393Z,101013.84
2022-12-12T05:18:55.072Z,101007.75
2022-12-12T05:21:21.749Z,101000.81
2022-12-12T05:23:48.293Z,100898.56
2022-12-12T05:26:23.083Z,100986.28
2022-12-12T05:28:50.300Z,100887.28
2022-12-12T05:31:17.385Z,100905.56
2022-12-12T05:33:44.412Z,100994.38
2022-12-12T05:36:11.525Z,100999.56
2022-12-12T05:38:38.496Z,100977.03
2022-12-12T05:41:05.324Z,100911.06
2022-12-12T05:43:32.903Z,101017.06
2022-12-12T05:46:00.193Z,100984.47
2022-12-12T05:48:26.927Z,100986.16
2022-12-12T05:50:54.203Z,101030.13
2022-12-12T05:53:21.230Z,100922.09
2022-12-12T05:55:50.607Z,101009.25
2022-12-12T05:58:18.137Z,100902.69
2022-12-12T06:00:47.880Z,101009.72
2022-12-12T06:03:15.060Z,100922.41
2022-12-12T06:05:41.835Z,100912.84
2022-12-12T06:08:08.365Z,101028.31
2022-12-12T06:10:34.946Z,101022.91
2022-12-12T06:13:01.488Z,101033.06
2022-12-12T06:15:28.065Z,101009.59
2022-12-12T06:17:55.024Z,101026.41
2022-12-12T06:20:21.571Z,100984.66
2022-12-12T06:22:53.377Z,100865.94
2022-12-12T06:25:20.511Z,101039.59
2022-12-12T06:27:46.991Z,101026.94
2022-12-12T06:30:14.052Z,101015.66
2022-12-12T06:32:40.582Z,101029.97
2022-12-12T06:35:07.244Z,101026.03
2022-12-12T06:37:33.753Z,101006.72
2022-12-12T06:40:00.408Z,101008.28
2022-12-12T06:42:26.904Z,101040.69
2022-12-12T06:44:53.392Z,101018.09
2022-12-12T06:47:19.899Z,100933.47
2022-12-12T06:49:46.341Z,100938.22
2022-12-12T06:52:12.916Z,101047.56
2022-12-12T06:54:39.486Z,101061.66
2022-12-12T06:57:05.978Z,101044.50
2022-12-12T06:59:32.497Z,101041.56
2022-12-12T07:01:59.380Z,101037.28
2022-12-12T07:04:25.874Z,100948.19
2022-12-12T07:06:52.806Z,101062.38
2022-12-12T07:09:20.405Z,101046.91
2022-12-12T07:11:46.988Z,101062.38
2022-12-12T07:14:13.481Z,101032.13
2022-12-12T07:16:40.011Z,100940.72
2022-12-12T07:19:06.802Z,100963.94
2022-12-12T07:21:33.295Z,101057.72
2022-12-12T07:23:59.781Z,101066.50
2022-12-12T07:26:26.393Z,101067.97
2022-12-12T07:28:52.972Z,100941.59
2022-12-12T07:31:22.496Z,101090.50
2022-12-12T07:33:49.010Z,101039.94
2022-12-12T07:36:17.030Z,101091.28
2022-12-12T07:38:44.082Z,100990.97
2022-12-12T07:41:13.923Z,100996.38
2022-12-12T07:43:44.312Z,101065.00
2022-12-12T07:46:15.390Z,101014.19
2022-12-12T07:48:42.320Z,101070.16
2022-12-12T07:51:09.378Z,101075.34
2022-12-12T07:53:36.228Z,101003.13
2022-12-12T07:56:07.565Z,101044.78
2022-12-12T07:58:34.731Z,101074.91
2022-12-12T08:01:01.368Z,101106.78
2022-12-12T08:03:27.922Z,101069.06
2022-12-12T08:05:54.411Z,101051.47
2022-12-12T08:08:21.383Z,101108.13
2022-12-12T08:10:48.050Z,101006.56
2022-12-12T08:13:14.542Z,101083.78
2022-12-12T08:15:42.646Z,101071.16
2022-12-12T08:18:09.197Z,101078.19
2022-12-12T08:20:39.493Z,101108.63
2022-12-12T08:23:06.150Z,100953.88
2022-12-12T08:25:35.317Z,101079.97
2022-12-12T08:28:02.262Z,101077.38
2022-12-12T08:30:28.811Z,101058.75
2022-12-12T08:32:55.358Z,101119.00
2022-12-12T08:35:21.831Z,101116.63
2022-12-12T08:37:48.381Z,101110.28
2022-12-12T08:40:15.031Z,101102.34
2022-12-12T08:42:41.583Z,101119.28
2022-12-12T08:45:08.504Z,101123.97
2022-12-12T08:47:35.156Z,101028.56
2022-12-12T08:50:01.686Z,101062.34
2022-12-12T08:52:28.224Z,100996.91
2022-12-12T08:54:54.742Z,101096.09
2022-12-12T08:57:25.780Z,101122.44
2022-12-12T08:59:52.702Z,101030.72
2022-12-12T09:02:19.258Z,101111.88
2022-12-12T09:04:45.872Z,101128.66
2022-12-12T09:07:12.418Z,101105.31
2022-12-12T09:09:41.748Z,101112.53
2022-12-12T09:12:08.335Z,101027.50
2022-12-12T09:14:34.814Z,101026.78
2022-12-12T09:17:01.374Z,101125.31
2022-12-12T09:19:27.928Z,101040.56
2022-12-12T09:21:54.547Z,101003.94
2022-12-12T09:24:21.098Z,101105.47
2022-12-12T09:26:48.614Z,101051.72
2022-12-12T09:29:15.201Z,101142.69
2022-12-12T09:31:41.744Z,101128.06
2022-12-12T09:34:08.244Z,101101.88
2022-12-12T09:36:34.729Z,101133.63
2022-12-12T09:39:01.532Z,101117.31
2022-12-12T09:41:30.590Z,101061.94
2022-12-12T09:44:08.002Z,101114.88
2022-12-12T09:46:39.919Z,101130.97
2022-12-12T09:49:39.927Z,101122.88
2022-12-12T09:52:31.184Z,101087.72
2022-12-12T09:55:00.538Z,101110.94
2022-12-12T09:57:59.002Z,101132.75
2022-12-12T10:00:27.222Z,101114.78
2022-12-12T10:03:12.379Z,101127.66
2022-12-12T10:06:13.857Z,101124.84
2022-12-12T10:08:55.940Z,101127.06
2022-12-12T10:11:49.740Z,101127.50
2022-12-12T10:14:21.002Z,101101.41
2022-12-12T10:16:51.220Z,101035.13
2022-12-12T10:19:27.545Z,101044.63
2022-12-12T10:21:58.865Z,101099.75
2022-12-12T10:24:46.886Z,101108.34
2022-12-12T10:27:14.495Z,101107.41
2022-12-12T10:29:48.590Z,101109.31
2022-12-12T10:32:42.715Z,101106.75
2022-12-12T10:35:21.334Z,101110.31
2022-12-12T10:38:03.118Z,101094.22
2022-12-12T10:40:45.382Z,101048.50
2022-12-12T10:43:19.806Z,101079.00
2022-12-12T10:46:07.992Z,101092.81
2022-12-12T10:48:34.574Z,101085.25
2022-12-12T10:51:04.595Z,101084.84
2022-12-12T10:53:32.249Z,101081.81
2022-12-12T10:56:05.096Z,101022.50
2022-12-12T10:58:44.019Z,101073.72
2022-12-12T11:01:38.495Z,101013.22
2022-12-12T11:04:08.574Z,101040.63
2022-12-12T11:06:55.746Z,101004.56
2022-12-12T11:09:27.895Z,101058.75
2022-12-12T11:12:01.549Z,101041.84
2022-12-12T11:14:35.220Z,101061.63
2022-12-12T11:17:26.575Z,101074.91
2022-12-12T11:19:55.273Z,101004.41
2022-12-12T11:22:22.238Z,101051.56
2022-12-12T11:24:50.117Z,101059.72
2022-12-12T11:27:21.657Z,101063.94
2022-12-12T11:30:21.311Z,101063.28
2022-12-12T11:32:53.215Z,101064.38
2022-12-12T11:35:31.771Z,101058.19
2022-12-12T11:38:02.701Z,100987.50
2022-12-12T11:40:32.619Z,100994.84
2022-12-12T11:43:26.132Z,101043.09
2022-12-12T11:45:58.792Z,101065.22
2022-12-12T11:48:40.125Z,101061.69
2022-12-12T11:51:07.271Z,101064.41
2022-12-12T11:53:38.620Z,101051.34
2022-12-12T11:56:31.297Z,101047.94
2022-12-12T11:59:07.812Z,100973.91
2022-12-12T12:02:10.925Z,101053.66
2022-12-12T12:04:53.583Z,101054.09
2022-12-12T12:07:43.543Z,101052.34
2022-12-12T12:10:41.048Z,101059.69
2022-12-12T12:13:42.620Z,101073.72
2022-12-12T12:16:21.353Z,101050.31
2022-12-12T12:19:09.782Z,101069.00
2022-12-12T12:21:48.441Z,101073.66
2022-12-12T12:24:55.795Z,101071.47
2022-12-12T12:27:30.317Z,101073.44
2022-12-12T12:30:19.314Z,101077.13
2022-12-12T12:33:10.225Z,101082.56
2022-12-12T12:35:52.964Z,101083.81
2022-12-12T12:38:26.515Z,101078.16
2022-12-12T12:41:43.884Z,101077.63
2022-12-12T12:44:30.287Z,101033.91
2022-12-12T12:47:26.319Z,101024.78
2022-12-12T12:50:13.657Z,101032.28
2022-12-12T12:52:47.951Z,101040.06
2022-12-12T12:55:21.968Z,101032.56
2022-12-12T12:57:50.763Z,100919.25
2022-12-12T13:00:21.261Z,100941.22
2022-12-12T13:02:58.972Z,101041.25
2022-12-12T13:05:39.680Z,100955.84
2022-12-12T13:08:27.993Z,101040.16
2022-12-12T13:11:03.226Z,101004.91
2022-12-12T13:13:39.645Z,101022.63
2022-12-12T13:16:13.597Z,100933.81
2022-12-12T13:18:45.359Z,101016.22
2022-12-12T13:21:40.474Z,101018.53
2022-12-12T13:24:21.824Z,101026.75
2022-12-12T13:26:53.026Z,100946.56
2022-12-12T13:29:41.712Z,101036.34
2022-12-12T13:32:27.848Z,101059.59
2022-12-12T13:34:59.607Z,101057.16
2022-12-12T13:37:26.966Z,101051.47
2022-12-12T13:40:06.412Z,101026.50
2022-12-12T13:43:26.519Z,101050.47
2022-12-12T13:45:54.043Z,100990.56
2022-12-12T13:48:29.580Z,101064.06
2022-12-12T13:51:30.934Z,101066.31
2022-12-12T13:54:11.996Z,101066.94
2022-12-12T13:56:42.272Z,101061.50
2022-12-12T13:59:26.817Z,101060.47
2022-12-12T14:01:57.613Z,100952.72
2022-12-12T14:04:28.784Z,101052.44
2022-12-12T14:07:14.035Z,101044.91
2022-12-12T14:09:49.098Z,100954.00
2022-12-12T14:12:20.406Z,100946.56
2022-12-12T14:14:59.322Z,101046.38
2022-12-12T14:17:29.521Z,101018.06
2022-12-12T14:19:58.746Z,101054.03
2022-12-12T14:22:28.380Z,101045.31
2022-12-12T14:25:08.219Z,101048.25
2022-12-12T14:27:49.930Z,101049.94
2022-12-12T14:30:41.171Z,100935.53
2022-12-12T14:33:39.933Z,101025.88
2022-12-12T14:36:30.746Z,101053.53
2022-12-12T14:39:00.190Z,101051.13
2022-12-12T14:41:34.223Z,101060.00
2022-12-12T14:44:36.616Z,101047.03
2022-12-12T14:46:51.579Z,100954.69
2022-12-12T14:49:19.351Z,101049.94
2022-12-12T14:51:50.602Z,101047.94
2022-12-12T14:54:20.037Z,100906.13
2022-12-12T14:56:53.275Z,101050.53
2022-12-12T14:59:27.393Z,100955.22
2022-12-12T15:01:59.663Z,101015.06
2022-12-12T15:04:30.220Z,101035.13
2022-12-12T15:06:58.555Z,100931.56
2022-12-12T15:09:32.707Z,101084.31
2022-12-12T15:12:08.286Z,101095.50
2022-12-12T15:14:34.776Z,101067.19
2022-12-12T15:17:09.213Z,101095.47
2022-12-12T15:19:55.714Z,101016.38
2022-12-12T15:22:26.273Z,100986.75
2022-12-12T15:24:57.912Z,101081.56
2022-12-12T15:27:28.170Z,101100.59
2022-12-12T15:29:56.533Z,101083.88
2022-12-12T15:32:25.781Z,100968.31
2022-12-12T15:35:08.447Z,100982.22
2022-12-12T15:37:37.334Z,101082.63
2022-12-12T15:40:06.986Z,101100.66
2022-12-12T15:42:33.749Z,101096.03
2022-12-12T15:45:00.909Z,101038.53
2022-12-12T15:47:27.423Z,101078.91
2022-12-12T15:49:53.944Z,101072.84
2022-12-12T15:52:20.362Z,101098.19
2022-12-12T15:54:53.397Z,101087.50
2022-12-12T15:57:23.325Z,101070.75
2022-12-12T15:59:56.910Z,100991.75
2022-12-12T16:02:24.265Z,101092.66
2022-12-12T16:04:55.733Z,101093.59
2022-12-12T16:07:23.461Z,100986.72
2022-12-12T16:10:20.754Z,101100.28
2022-12-12T16:12:58.525Z,101087.31
2022-12-12T16:15:37.653Z,101087.31
2022-12-12T16:18:17.869Z,101083.97
2022-12-12T16:20:51.421Z,101099.53
2022-12-12T16:23:28.714Z,101106.22
2022-12-12T16:25:55.794Z,101097.53
2022-12-12T16:28:25.797Z,101109.84
2022-12-12T16:30:59.146Z,101112.69
2022-12-12T16:33:30.476Z,101119.47
2022-12-12T16:36:00.530Z,100930.00
2022-12-12T16:38:28.604Z,101087.88
2022-12-12T16:40:58.284Z,100980.06
2022-12-12T16:43:25.653Z,101118.78
2022-12-12T16:45:54.174Z,101122.19
2022-12-12T16:48:23.767Z,101090.03
2022-12-12T16:50:52.294Z,101023.81
2022-12-12T16:53:19.999Z,101112.69
2022-12-12T16:55:49.028Z,101036.13
2022-12-12T16:58:15.837Z,101001.16
2022-12-12T17:00:43.362Z,100951.66
2022-12-12T17:03:14.197Z,101116.31
2022-12-12T17:05:42.389Z,101108.41
2022-12-12T17:08:09.183Z,101095.09
2022-12-12T17:10:36.494Z,101086.75
2022-12-12T17:13:07.789Z,101099.16
2022-12-12T17:15:34.662Z,101082.13
2022-12-12T17:18:01.441Z,100983.66
2022-12-12T17:20:37.627Z,100992.47
2022-12-12T17:25:50.656Z,101103.56
2022-12-12T17:28:19.810Z,101106.16
2022-12-12T17:30:49.729Z,101107.50
2022-12-12T17:33:19.613Z,101004.53
2022-12-12T17:35:46.475Z,101005.97
2022-12-12T17:38:16.350Z,100984.31
2022-12-12T17:40:43.438Z,101094.22
2022-12-12T17:43:09.980Z,101090.59
2022-12-12T17:45:36.486Z,101007.31
2022-12-12T17:48:04.675Z,101020.41
2022-12-12T17:50:34.026Z,101097.38
2022-12-12T17:53:03.565Z,101094.22
2022-12-12T17:55:51.496Z,101092.41
2022-12-12T17:58:16.479Z,101083.59
2022-12-12T18:00:43.045Z,100980.03
2022-12-12T18:03:09.747Z,100985.09
2022-12-12T18:05:36.190Z,100993.13
2022-12-12T18:08:02.725Z,101068.03
2022-12-12T18:10:29.259Z,101094.88
2022-12-12T18:12:56.029Z,101079.31
2022-12-12T18:15:22.562Z,101088.56
2022-12-12T18:17:49.042Z,100950.34
2022-12-12T18:20:15.791Z,101088.91
2022-12-12T18:22:42.534Z,101088.66
2022-12-12T18:25:09.354Z,101060.78
2022-12-12T18:27:38.025Z,101045.34
2022-12-12T18:30:04.941Z,101084.03
2022-12-12T18:32:31.426Z,101075.56
2022-12-12T18:34:59.439Z,101081.09
2022-12-12T18:37:27.469Z,101086.16
2022-12-12T18:39:54.664Z,101094.28
2022-12-12T18:42:21.623Z,101081.78
2022-12-12T18:44:48.078Z,101092.03
2022-12-12T18:47:14.520Z,101091.78
2022-12-12T18:49:41.021Z,101085.25
2022-12-12T18:52:08.160Z,101094.63
2022-12-12T18:54:34.644Z,101066.63
2022-12-12T18:57:01.228Z,100992.47
2022-12-12T18:59:27.716Z,101111.31
2022-12-12T19:01:54.247Z,101105.91
2022-12-12T19:04:23.701Z,101104.56
2022-12-12T19:06:51.545Z,101109.06
2022-12-12T19:09:19.381Z,101001.84
2022-12-12T19:11:47.061Z,101104.56
2022-12-12T19:14:15.330Z,101097.44
2022-12-12T19:16:43.085Z,101095.75
2022-12-12T19:19:10.435Z,101076.59
2022-12-12T19:21:38.375Z,101059.34
2022-12-12T19:24:08.970Z,101082.47
2022-12-12T19:26:37.014Z,100975.50
2022-12-12T19:29:11.566Z,101071.41
2022-12-12T19:31:39.559Z,101089.69
2022-12-12T19:34:08.581Z,101092.41
2022-12-12T19:36:35.938Z,101099.84
2022-12-12T19:39:04.979Z,101006.53
2022-12-12T19:41:31.487Z,101057.19
2022-12-12T19:44:04.126Z,101103.69
2022-12-12T19:46:32.245Z,101099.28
2022-12-12T19:49:01.422Z,101082.22
2022-12-12T19:51:32.440Z,101089.22
2022-12-12T19:54:00.440Z,101018.56
2022-12-12T19:56:29.487Z,101025.56
2022-12-12T19:58:57.137Z,101082.00
2022-12-12T20:01:28.260Z,101081.22
2022-12-12T20:04:02.976Z,101015.88
2022-12-12T20:06:29.635Z,101109.75
2022-12-12T20:08:59.479Z,100983.25
2022-12-12T20:11:26.904Z,101109.53
2022-12-12T20:13:57.596Z,101101.41
2022-12-12T20:16:27.963Z,101013.59
2022-12-12T20:18:56.274Z,101074.09
2022-12-12T20:21:59.006Z,101086.16
2022-12-12T20:24:12.486Z,101113.91
2022-12-12T20:26:40.209Z,101010.97
2022-12-12T20:29:07.766Z,101109.94
2022-12-12T20:31:36.990Z,101020.53
2022-12-12T20:34:04.060Z,101125.31
2022-12-12T20:36:33.304Z,101115.47
2022-12-12T20:39:01.792Z,101128.00
2022-12-12T20:41:31.115Z,101116.50
2022-12-12T20:43:58.792Z,101114.94
2022-12-12T20:46:34.105Z,100946.66
2022-12-12T20:49:02.733Z,101091.22
2022-12-12T20:54:22.096Z,101111.91
2022-12-12T20:56:49.733Z,101016.75
2022-12-12T20:59:16.235Z,100990.56
2022-12-12T21:01:42.792Z,100991.03
2022-12-12T21:04:09.467Z,101118.78
2022-12-12T21:06:43.123Z,101121.84
2022-12-12T21:09:11.676Z,101121.03
2022-12-12T21:11:38.921Z,101018.09
2022-12-12T21:14:06.985Z,101091.47
2022-12-12T21:16:36.948Z,101113.81
2022-12-12T21:19:07.985Z,101086.72
2022-12-12T21:21:34.492Z,101112.25
2022-12-12T21:24:01.645Z,101031.09
2022-12-12T21:26:30.558Z,101110.00
2022-12-12T21:28:58.390Z,101059.53
2022-12-12T21:31:30.769Z,101132.91
2022-12-12T21:33:57.792Z,101013.06
2022-12-12T21:36:26.519Z,101023.56
2022-12-12T21:38:54.459Z,100941.19
2022-12-12T21:41:22.869Z,101117.66
2022-12-12T21:43:49.974Z,101119.00
2022-12-12T21:46:19.896Z,101093.50
2022-12-12T21:48:46.790Z,100987.97
2022-12-12T21:51:16.036Z,101121.13
2022-12-12T21:53:43.004Z,101107.59
2022-12-12T21:56:17.624Z,101018.31
2022-12-12T21:58:46.137Z,101099.69
2022-12-12T22:01:18.157Z,101117.53
2022-12-12T22:03:46.284Z,100982.09
2022-12-12T22:06:24.205Z,101004.53
2022-12-12T22:08:51.494Z,101058.28
2022-12-12T22:11:23.810Z,101083.66
2022-12-12T22:14:07.171Z,101132.22
2022-12-12T22:16:34.466Z,101129.25
2022-12-12T22:19:06.030Z,101026.00
2022-12-12T22:21:33.808Z,101059.88
2022-12-12T22:24:00.868Z,100998.03
2022-12-12T22:26:32.615Z,101129.28
2022-12-12T22:29:01.866Z,101008.53
2022-12-12T22:31:34.744Z,101002.31
2022-12-12T22:34:03.923Z,101123.31
2022-12-12T22:36:33.701Z,101046.69
2022-12-12T22:39:01.091Z,101121.75
2022-12-12T22:41:29.003Z,101087.19
2022-12-12T22:43:57.698Z,101114.84
2022-12-12T22:46:26.054Z,101029.41
2022-12-12T22:48:54.971Z,101132.13
2022-12-12T22:51:24.155Z,101126.13
2022-12-12T22:53:51.323Z,101118.91
2022-12-12T22:56:17.918Z,101125.13
2022-12-12T22:58:44.328Z,101117.09
2022-12-12T23:01:16.462Z,101127.13
2022-12-12T23:03:43.253Z,101041.34
2022-12-12T23:06:14.060Z,101000.97
2022-12-12T23:08:41.804Z,101002.88
2022-12-12T23:11:14.729Z,101013.94
2022-12-12T23:13:44.174Z,101114.94
2022-12-12T23:16:19.377Z,101123.97
2022-12-12T23:18:47.431Z,101102.88
2022-12-12T23:21:17.464Z,101102.56
2022-12-12T23:23:45.260Z,101099.28
2022-12-12T23:26:15.090Z,100983.06
2022-12-12T23:28:42.945Z,101072.66
2022-12-12T23:31:16.068Z,101079.44
2022-12-12T23:33:42.885Z,101039.72
2022-12-12T23:36:14.265Z,101035.31
2022-12-12T23:38:41.815Z,101098.25
2022-12-12T23:41:10.865Z,101081.09
2022-12-12T23:43:37.757Z,101082.22
2022-12-12T23:46:06.516Z,100967.88
2022-12-12T23:48:33.481Z,101061.47
2022-12-12T23:51:00.309Z,101075.47
2022-12-12T23:53:30.868Z,101060.03
2022-12-12T23:56:02.589Z,101057.56
2022-12-12T23:58:29.038Z,101057.66
